Huvudsida
METAR-TAF:

METAR-TAF

Flygplatser :

Karleby-Jakobstad flygplats

Karleby, Finland

latitud: 63-43N, longitud: 023-09E, höjd: 25 m

Aktuellt väderrapport

Denna rapport gjordes för 34 minuter sedan, klockan 03:20 UTC
Vind 4 kt från väst/sydväst, varierande mellan sydväst och väst
Temperatur -1°C
Fuktighet 86%
Tryck 987 hPa
Sikt 10 km eller mer
Få moln på en höjd av 2200 ft

METAR: EFKK 190320Z AUTO 25004KT 220V280 9999 FEW022 M01/M03 Q0987

Tid: 05:54 (03:54 UTC)

Väderprognos

Denna rapport gjordes för 7 timmar och 25 minuter sedan, klockan 20:29 UTC
Prognos gäller från 18 kl. 21 UTC till 18 kl. 24 UTC
Vind 8 kt från syd/sydväst
Sikt 10 km eller mer
Inga moln under 1 500 m eller inga cumulonimbus

TAF: EFKK 182029Z 1821/1824 20008KT CAVOK

Aktuella väderrapporter och prognoser från 4000 flygplatser (METAR- och TAF-rapporter).

De tillgängliga stationerna syns som gula och röda prickar på kartan.

För musen över prickarna för att se namnen på stationerna.

Klicka sedan för att få väderrapporter och prognoser.

För att ändra kartan: Klicka på de gröna knapparna med ett svart kors på för att zooma in; den gröna knappen med ett streck på för att zooma ut; eller på de gröna pilarna för angränsande kartor.


METAR-TAF: